sensor_id;sensor_type;location;lat;lon;timestamp;pressure;altitude;pressure_sealevel;temperature;humidity
20077;BME280;12348;42.710;23.378;2024-01-15T00:01:19;94587.88;;;-5.20;100.00
20077;BME280;12348;42.710;23.378;2024-01-15T00:03:45;94587.31;;;-5.22;100.00
20077;BME280;12348;42.710;23.378;2024-01-15T00:06:12;94594.97;;;-5.27;100.00
20077;BME280;12348;42.710;23.378;2024-01-15T00:08:39;94589.34;;;-5.37;100.00
20077;BME280;12348;42.710;23.378;2024-01-15T00:11:05;94588.34;;;-5.43;100.00
20077;BME280;12348;42.710;23.378;2024-01-15T00:13:32;94582.69;;;-5.46;100.00
20077;BME280;12348;42.710;23.378;2024-01-15T00:15:59;94582.69;;;-5.40;100.00
20077;BME280;12348;42.710;23.378;2024-01-15T00:18:27;94581.88;;;-5.40;100.00
20077;BME280;12348;42.710;23.378;2024-01-15T00:20:54;94589.53;;;-5.32;100.00
20077;BME280;12348;42.710;23.378;2024-01-15T00:23:20;94586.28;;;-5.21;100.00
20077;BME280;12348;42.710;23.378;2024-01-15T00:25:47;94586.69;;;-5.17;100.00
20077;BME280;12348;42.710;23.378;2024-01-15T00:28:14;94586.59;;;-4.84;100.00
20077;BME280;12348;42.710;23.378;2024-01-15T00:30:40;94581.50;;;-4.79;100.00
20077;BME280;12348;42.710;23.378;2024-01-15T00:33:07;94582.16;;;-4.45;100.00
20077;BME280;12348;42.710;23.378;2024-01-15T00:35:35;94584.66;;;-4.57;100.00
20077;BME280;12348;42.710;23.378;2024-01-15T00:38:02;94563.44;;;-4.55;100.00
20077;BME280;12348;42.710;23.378;2024-01-15T00:40:29;94589.59;;;-4.74;100.00
20077;BME280;12348;42.710;23.378;2024-01-15T00:42:55;94580.56;;;-4.91;100.00
20077;BME280;12348;42.710;23.378;2024-01-15T00:45:22;94583.19;;;-4.98;100.00
20077;BME280;12348;42.710;23.378;2024-01-15T00:47:49;94588.25;;;-5.03;100.00
20077;BME280;12348;42.710;23.378;2024-01-15T00:50:15;94578.34;;;-5.01;100.00
20077;BME280;12348;42.710;23.378;2024-01-15T00:52:44;94581.81;;;-5.07;100.00
20077;BME280;12348;42.710;23.378;2024-01-15T00:55:10;94580.63;;;-5.18;100.00
20077;BME280;12348;42.710;23.378;2024-01-15T00:57:37;94580.63;;;-5.24;100.00
20077;BME280;12348;42.710;23.378;2024-01-15T01:00:05;94582.28;;;-5.30;100.00
20077;BME280;12348;42.710;23.378;2024-01-15T01:05:22;94579.66;;;-5.50;100.00
20077;BME280;12348;42.710;23.378;2024-01-15T01:07:50;94578.88;;;-5.37;100.00
20077;BME280;12348;42.710;23.378;2024-01-15T01:10:16;94583.09;;;-5.36;100.00
20077;BME280;12348;42.710;23.378;2024-01-15T01:12:43;94583.09;;;-5.49;100.00
20077;BME280;12348;42.710;23.378;2024-01-15T01:15:10;94577.88;;;-5.63;100.00
20077;BME280;12348;42.710;23.378;2024-01-15T01:17:36;94572.63;;;-5.63;100.00
20077;BME280;12348;42.710;23.378;2024-01-15T01:20:04;94575.66;;;-5.52;100.00
20077;BME280;12348;42.710;23.378;2024-01-15T01:22:33;94573.63;;;-5.50;100.00
20077;BME280;12348;42.710;23.378;2024-01-15T01:25:01;94569.81;;;-5.54;100.00
20077;BME280;12348;42.710;23.378;2024-01-15T01:27:28;94569.00;;;-5.68;100.00
20077;BME280;12348;42.710;23.378;2024-01-15T01:29:55;94570.81;;;-5.75;100.00
20077;BME280;12348;42.710;23.378;2024-01-15T01:32:22;94565.56;;;-5.75;100.00
20077;BME280;12348;42.710;23.378;2024-01-15T01:34:48;94557.31;;;-5.79;100.00
20077;BME280;12348;42.710;23.378;2024-01-15T01:37:15;94560.94;;;-5.80;100.00
20077;BME280;12348;42.710;23.378;2024-01-15T01:39:42;94549.06;;;-5.82;100.00
20077;BME280;12348;42.710;23.378;2024-01-15T01:42:12;94549.66;;;-5.80;100.00
20077;BME280;12348;42.710;23.378;2024-01-15T01:44:39;94552.50;;;-5.82;100.00
20077;BME280;12348;42.710;23.378;2024-01-15T01:47:05;94556.09;;;-5.83;100.00
20077;BME280;12348;42.710;23.378;2024-01-15T01:52:17;94558.53;;;-5.88;100.00
20077;BME280;12348;42.710;23.378;2024-01-15T01:54:44;94550.84;;;-5.83;100.00
20077;BME280;12348;42.710;23.378;2024-01-15T01:57:12;94548.66;;;-5.86;100.00
20077;BME280;12348;42.710;23.378;2024-01-15T01:59:40;94546.22;;;-5.81;100.00
20077;BME280;12348;42.710;23.378;2024-01-15T02:02:07;94539.41;;;-5.04;100.00
20077;BME280;12348;42.710;23.378;2024-01-15T02:04:34;94535.69;;;-4.45;100.00
20077;BME280;12348;42.710;23.378;2024-01-15T02:07:03;94538.69;;;-5.31;100.00
20077;BME280;12348;42.710;23.378;2024-01-15T02:09:30;94539.16;;;-5.74;100.00
20077;BME280;12348;42.710;23.378;2024-01-15T02:11:58;94535.13;;;-5.83;100.00
20077;BME280;12348;42.710;23.378;2024-01-15T02:14:26;94528.91;;;-5.82;100.00
20077;BME280;12348;42.710;23.378;2024-01-15T02:16:53;94524.50;;;-5.95;100.00
20077;BME280;12348;42.710;23.378;2024-01-15T02:19:20;94525.91;;;-6.05;100.00
20077;BME280;12348;42.710;23.378;2024-01-15T02:21:46;94517.22;;;-6.13;100.00
20077;BME280;12348;42.710;23.378;2024-01-15T02:24:15;94505.34;;;-6.15;100.00
20077;BME280;12348;42.710;23.378;2024-01-15T02:26:42;94506.16;;;-6.08;100.00
20077;BME280;12348;42.710;23.378;2024-01-15T02:29:09;94498.09;;;-6.06;100.00
20077;BME280;12348;42.710;23.378;2024-01-15T02:31:36;94485.78;;;-6.06;100.00
20077;BME280;12348;42.710;23.378;2024-01-15T02:34:03;94473.94;;;-6.15;100.00
20077;BME280;12348;42.710;23.378;2024-01-15T02:36:29;94475.13;;;-6.04;100.00
20077;BME280;12348;42.710;23.378;2024-01-15T02:38:56;94483.97;;;-5.99;100.00
20077;BME280;12348;42.710;23.378;2024-01-15T02:41:24;94470.63;;;-5.91;100.00
20077;BME280;12348;42.710;23.378;2024-01-15T02:43:51;94476.13;;;-5.92;100.00
20077;BME280;12348;42.710;23.378;2024-01-15T02:46:18;94487.63;;;-5.93;100.00
20077;BME280;12348;42.710;23.378;2024-01-15T02:48:44;94483.50;;;-5.69;100.00
20077;BME280;12348;42.710;23.378;2024-01-15T02:51:11;94478.47;;;-5.71;100.00
20077;BME280;12348;42.710;23.378;2024-01-15T02:53:39;94474.25;;;-5.78;100.00
20077;BME280;12348;42.710;23.378;2024-01-15T02:56:06;94476.47;;;-5.89;100.00
20077;BME280;12348;42.710;23.378;2024-01-15T02:58:35;94483.97;;;-5.92;100.00
20077;BME280;12348;42.710;23.378;2024-01-15T03:01:01;94476.34;;;-6.00;100.00
20077;BME280;12348;42.710;23.378;2024-01-15T03:03:28;94468.69;;;-6.08;100.00
20077;BME280;12348;42.710;23.378;2024-01-15T03:05:55;94474.31;;;-6.12;100.00
20077;BME280;12348;42.710;23.378;2024-01-15T03:08:21;94477.34;;;-6.15;100.00
20077;BME280;12348;42.710;23.378;2024-01-15T03:10:49;94488.44;;;-6.19;100.00
20077;BME280;12348;42.710;23.378;2024-01-15T03:13:15;94480.97;;;-6.22;100.00
20077;BME280;12348;42.710;23.378;2024-01-15T03:15:46;94479.97;;;-6.28;100.00
20077;BME280;12348;42.710;23.378;2024-01-15T03:18:13;94473.53;;;-6.25;100.00
20077;BME280;12348;42.710;23.378;2024-01-15T03:20:39;94465.44;;;-6.11;100.00
20077;BME280;12348;42.710;23.378;2024-01-15T03:23:06;94465.66;;;-6.12;100.00
20077;BME280;12348;42.710;23.378;2024-01-15T03:25:33;94462.03;;;-6.18;100.00
20077;BME280;12348;42.710;23.378;2024-01-15T03:27:59;94472.69;;;-6.13;100.00
20077;BME280;12348;42.710;23.378;2024-01-15T03:30:26;94458.78;;;-6.13;100.00
20077;BME280;12348;42.710;23.378;2024-01-15T03:32:55;94452.97;;;-6.08;100.00
20077;BME280;12348;42.710;23.378;2024-01-15T03:35:21;94458.59;;;-6.12;100.00
20077;BME280;12348;42.710;23.378;2024-01-15T03:37:48;94456.38;;;-6.15;100.00
20077;BME280;12348;42.710;23.378;2024-01-15T03:40:15;94451.72;;;-6.13;100.00
20077;BME280;12348;42.710;23.378;2024-01-15T03:42:42;94450.53;;;-6.03;100.00
20077;BME280;12348;42.710;23.378;2024-01-15T03:45:08;94442.81;;;-5.92;100.00
20077;BME280;12348;42.710;23.378;2024-01-15T03:47:35;94449.47;;;-5.82;100.00
20077;BME280;12348;42.710;23.378;2024-01-15T03:50:04;94445.00;;;-5.75;100.00
20077;BME280;12348;42.710;23.378;2024-01-15T03:52:31;94442.16;;;-5.67;100.00
20077;BME280;12348;42.710;23.378;2024-01-15T03:54:58;94448.56;;;-5.56;100.00
20077;BME280;12348;42.710;23.378;2024-01-15T03:57:25;94451.56;;;-5.53;100.00
20077;BME280;12348;42.710;23.378;2024-01-15T03:59:52;94448.69;;;-5.31;100.00
20077;BME280;12348;42.710;23.378;2024-01-15T04:02:18;94442.59;;;-5.19;100.00
20077;BME280;12348;42.710;23.378;2024-01-15T04:04:45;94431.22;;;-5.06;100.00
20077;BME280;12348;42.710;23.378;2024-01-15T04:07:14;94432.00;;;-5.05;100.00
20077;BME280;12348;42.710;23.378;2024-01-15T04:09:40;94427.41;;;-5.10;100.00
20077;BME280;12348;42.710;23.378;2024-01-15T04:12:07;94432.53;;;-5.28;100.00
20077;BME280;12348;42.710;23.378;2024-01-15T04:14:34;94418.41;;;-5.34;100.00
20077;BME280;12348;42.710;23.378;2024-01-15T04:17:00;94417.72;;;-5.16;100.00
20077;BME280;12348;42.710;23.378;2024-01-15T04:19:27;94428.50;;;-5.31;100.00
20077;BME280;12348;42.710;23.378;2024-01-15T04:21:54;94428.75;;;-5.39;100.00
20077;BME280;12348;42.710;23.378;2024-01-15T04:24:22;94421.75;;;-5.52;100.00
20077;BME280;12348;42.710;23.378;2024-01-15T04:26:48;94428.41;;;-5.56;100.00
20077;BME280;12348;42.710;23.378;2024-01-15T04:29:15;94429.22;;;-5.62;100.00
20077;BME280;12348;42.710;23.378;2024-01-15T04:31:42;94429.25;;;-5.69;100.00
20077;BME280;12348;42.710;23.378;2024-01-15T04:34:09;94426.06;;;-5.77;100.00
20077;BME280;12348;42.710;23.378;2024-01-15T04:36:38;94424.00;;;-5.75;100.00
20077;BME280;12348;42.710;23.378;2024-01-15T04:39:05;94413.75;;;-5.83;100.00
20077;BME280;12348;42.710;23.378;2024-01-15T04:41:33;94429.72;;;-5.85;100.00
20077;BME280;12348;42.710;23.378;2024-01-15T04:44:00;94418.75;;;-5.69;100.00
20077;BME280;12348;42.710;23.378;2024-01-15T04:46:27;94420.69;;;-5.44;100.00
20077;BME280;12348;42.710;23.378;2024-01-15T04:48:53;94416.63;;;-5.33;100.00
20077;BME280;12348;42.710;23.378;2024-01-15T04:51:20;94414.38;;;-5.30;100.00
20077;BME280;12348;42.710;23.378;2024-01-15T04:53:47;94407.50;;;-5.24;100.00
20077;BME280;12348;42.710;23.378;2024-01-15T04:56:14;94412.81;;;-5.38;100.00
20077;BME280;12348;42.710;23.378;2024-01-15T04:58:42;94412.03;;;-5.45;100.00
20077;BME280;12348;42.710;23.378;2024-01-15T05:01:09;94404.16;;;-5.45;100.00
20077;BME280;12348;42.710;23.378;2024-01-15T05:03:36;94398.03;;;-5.32;100.00
20077;BME280;12348;42.710;23.378;2024-01-15T05:06:03;94405.13;;;-5.39;100.00
20077;BME280;12348;42.710;23.378;2024-01-15T05:08:30;94416.50;;;-5.52;100.00
20077;BME280;12348;42.710;23.378;2024-01-15T05:10:57;94412.41;;;-4.96;100.00
20077;BME280;12348;42.710;23.378;2024-01-15T05:13:23;94410.53;;;-4.89;100.00
20077;BME280;12348;42.710;23.378;2024-01-15T05:15:52;94403.94;;;-5.05;100.00
20077;BME280;12348;42.710;23.378;2024-01-15T05:18:18;94397.06;;;-5.38;100.00
20077;BME280;12348;42.710;23.378;2024-01-15T05:20:45;94393.47;;;-5.50;100.00
20077;BME280;12348;42.710;23.378;2024-01-15T05:23:15;94400.38;;;-5.55;100.00
20077;BME280;12348;42.710;23.378;2024-01-15T05:25:41;94395.16;;;-5.69;100.00
20077;BME280;12348;42.710;23.378;2024-01-15T05:28:08;94400.88;;;-5.78;100.00
20077;BME280;12348;42.710;23.378;2024-01-15T05:30:35;94390.19;;;-5.83;100.00
20077;BME280;12348;42.710;23.378;2024-01-15T05:33:04;94402.31;;;-5.89;100.00
20077;BME280;12348;42.710;23.378;2024-01-15T05:35:32;94391.59;;;-5.81;100.00
20077;BME280;12348;42.710;23.378;2024-01-15T05:37:59;94394.78;;;-5.72;100.00
20077;BME280;12348;42.710;23.378;2024-01-15T05:40:26;94384.28;;;-5.72;100.00
20077;BME280;12348;42.710;23.378;2024-01-15T05:42:53;94370.16;;;-5.65;100.00
20077;BME280;12348;42.710;23.378;2024-01-15T05:45:19;94369.16;;;-5.64;100.00
20077;BME280;12348;42.710;23.378;2024-01-15T05:47:46;94376.00;;;-5.63;100.00
20077;BME280;12348;42.710;23.378;2024-01-15T05:50:14;94375.59;;;-5.59;100.00
20077;BME280;12348;42.710;23.378;2024-01-15T05:52:41;94366.53;;;-5.64;100.00
20077;BME280;12348;42.710;23.378;2024-01-15T05:55:07;94362.09;;;-5.63;100.00
20077;BME280;12348;42.710;23.378;2024-01-15T05:57:35;94367.75;;;-5.66;100.00
20077;BME280;12348;42.710;23.378;2024-01-15T06:00:03;94361.69;;;-5.67;100.00
20077;BME280;12348;42.710;23.378;2024-01-15T06:02:30;94352.38;;;-5.56;100.00
20077;BME280;12348;42.710;23.378;2024-01-15T06:04:56;94361.97;;;-5.43;100.00
20077;BME280;12348;42.710;23.378;2024-01-15T06:07:24;94383.72;;;-5.29;100.00
20077;BME280;12348;42.710;23.378;2024-01-15T06:09:51;94400.63;;;-5.19;100.00
20077;BME280;12348;42.710;23.378;2024-01-15T06:12:19;94389.06;;;-5.11;100.00
20077;BME280;12348;42.710;23.378;2024-01-15T06:14:45;94399.44;;;-4.91;100.00
20077;BME280;12348;42.710;23.378;2024-01-15T06:17:13;94368.41;;;-4.76;100.00
20077;BME280;12348;42.710;23.378;2024-01-15T06:19:40;94376.97;;;-4.12;100.00
20077;BME280;12348;42.710;23.378;2024-01-15T06:22:06;94356.47;;;-3.36;100.00
20077;BME280;12348;42.710;23.378;2024-01-15T06:24:34;94377.72;;;-2.89;100.00
20077;BME280;12348;42.710;23.378;2024-01-15T06:27:01;94353.97;;;-2.48;100.00
20077;BME280;12348;42.710;23.378;2024-01-15T06:29:30;94351.09;;;-1.76;100.00
20077;BME280;12348;42.710;23.378;2024-01-15T06:31:56;94353.41;;;-1.91;100.00
20077;BME280;12348;42.710;23.378;2024-01-15T06:34:23;94353.16;;;-1.26;100.00
20077;BME280;12348;42.710;23.378;2024-01-15T06:36:50;94359.16;;;-0.39;100.00
20077;BME280;12348;42.710;23.378;2024-01-15T06:39:17;94370.41;;;-0.78;100.00
20077;BME280;12348;42.710;23.378;2024-01-15T06:41:45;94377.66;;;-0.39;100.00
20077;BME280;12348;42.710;23.378;2024-01-15T06:44:12;94368.72;;;0.56;100.00
20077;BME280;12348;42.710;23.378;2024-01-15T06:46:42;94364.41;;;0.72;91.11
20077;BME280;12348;42.710;23.378;2024-01-15T06:49:08;94368.13;;;0.71;88.82
20077;BME280;12348;42.710;23.378;2024-01-15T06:51:35;94369.94;;;0.48;89.37
20077;BME280;12348;42.710;23.378;2024-01-15T06:54:02;94370.00;;;0.32;90.32
20077;BME280;12348;42.710;23.378;2024-01-15T06:56:29;94371.63;;;0.16;90.67
20077;BME280;12348;42.710;23.378;2024-01-15T06:58:57;94376.19;;;0.04;91.08
20077;BME280;12348;42.710;23.378;2024-01-15T07:01:24;94392.41;;;-0.27;93.72
20077;BME280;12348;42.710;23.378;2024-01-15T07:03:51;94390.31;;;-0.08;93.71
20077;BME280;12348;42.710;23.378;2024-01-15T07:06:18;94392.34;;;-0.32;94.92
20077;BME280;12348;42.710;23.378;2024-01-15T07:08:45;94390.63;;;-0.55;97.43
20077;BME280;12348;42.710;23.378;2024-01-15T07:11:12;94379.09;;;-0.94;100.00
20077;BME280;12348;42.710;23.378;2024-01-15T07:13:39;94372.91;;;-1.28;100.00
20077;BME280;12348;42.710;23.378;2024-01-15T07:16:07;94360.28;;;-1.66;100.00
20077;BME280;12348;42.710;23.378;2024-01-15T07:18:34;94364.53;;;-1.89;100.00
20077;BME280;12348;42.710;23.378;2024-01-15T07:21:00;94376.81;;;-1.95;100.00
20077;BME280;12348;42.710;23.378;2024-01-15T07:23:28;94377.84;;;-1.96;100.00
20077;BME280;12348;42.710;23.378;2024-01-15T07:25:54;94396.06;;;-2.06;100.00
20077;BME280;12348;42.710;23.378;2024-01-15T07:28:21;94383.69;;;-2.29;100.00
20077;BME280;12348;42.710;23.378;2024-01-15T07:30:48;94381.75;;;-2.22;100.00
20077;BME280;12348;42.710;23.378;2024-01-15T07:33:17;94383.22;;;-2.26;100.00
20077;BME280;12348;42.710;23.378;2024-01-15T07:35:43;94373.28;;;-2.24;100.00
20077;BME280;12348;42.710;23.378;2024-01-15T07:38:12;94360.53;;;-2.27;100.00
20077;BME280;12348;42.710;23.378;2024-01-15T07:40:38;94357.53;;;-1.95;100.00
20077;BME280;12348;42.710;23.378;2024-01-15T07:43:05;94355.59;;;-1.88;100.00
20077;BME280;12348;42.710;23.378;2024-01-15T07:45:32;94363.47;;;-1.76;100.00
20077;BME280;12348;42.710;23.378;2024-01-15T07:47:58;94380.69;;;-1.74;100.00
20077;BME280;12348;42.710;23.378;2024-01-15T07:50:26;94381.28;;;-1.83;100.00
20077;BME280;12348;42.710;23.378;2024-01-15T07:52:53;94380.00;;;-1.81;100.00
20077;BME280;12348;42.710;23.378;2024-01-15T07:55:20;94378.84;;;-1.61;100.00
20077;BME280;12348;42.710;23.378;2024-01-15T07:57:46;94373.59;;;-1.85;100.00
20077;BME280;12348;42.710;23.378;2024-01-15T08:00:15;94376.81;;;-1.83;100.00
20077;BME280;12348;42.710;23.378;2024-01-15T08:02:42;94390.13;;;-2.01;100.00
20077;BME280;12348;42.710;23.378;2024-01-15T08:05:09;94352.72;;;-1.98;100.00
20077;BME280;12348;42.710;23.378;2024-01-15T08:07:37;94347.25;;;-2.20;100.00
20077;BME280;12348;42.710;23.378;2024-01-15T08:10:04;94352.63;;;-2.50;100.00
20077;BME280;12348;42.710;23.378;2024-01-15T08:12:31;94354.59;;;-2.34;100.00
20077;BME280;12348;42.710;23.378;2024-01-15T08:14:58;94359.50;;;-2.02;100.00
20077;BME280;12348;42.710;23.378;2024-01-15T08:17:24;94372.84;;;-1.45;100.00
20077;BME280;12348;42.710;23.378;2024-01-15T08:19:54;94362.88;;;-1.14;100.00
20077;BME280;12348;42.710;23.378;2024-01-15T08:22:21;94358.16;;;-0.84;100.00
20077;BME280;12348;42.710;23.378;2024-01-15T08:24:50;94362.50;;;-1.06;100.00
20077;BME280;12348;42.710;23.378;2024-01-15T08:27:17;94372.53;;;-0.63;100.00
20077;BME280;12348;42.710;23.378;2024-01-15T08:29:45;94380.41;;;-0.17;100.00
20077;BME280;12348;42.710;23.378;2024-01-15T08:32:12;94381.03;;;0.45;100.00
20077;BME280;12348;42.710;23.378;2024-01-15T08:34:40;94368.94;;;1.20;100.00
20077;BME280;12348;42.710;23.378;2024-01-15T08:37:07;94357.91;;;2.40;99.75
20077;BME280;12348;42.710;23.378;2024-01-15T08:39:34;94349.25;;;3.44;86.00
20077;BME280;12348;42.710;23.378;2024-01-15T08:42:05;94334.56;;;4.38;80.14
20077;BME280;12348;42.710;23.378;2024-01-15T08:44:32;94335.66;;;5.91;69.49
20077;BME280;12348;42.710;23.378;2024-01-15T08:46:58;94332.97;;;6.78;65.02
20077;BME280;12348;42.710;23.378;2024-01-15T08:49:25;94329.41;;;5.66;64.39
20077;BME280;12348;42.710;23.378;2024-01-15T08:51:52;94321.97;;;5.63;63.27
20077;BME280;12348;42.710;23.378;2024-01-15T08:54:18;94319.78;;;5.31;63.83
20077;BME280;12348;42.710;23.378;2024-01-15T08:56:46;94318.88;;;4.96;66.36
20077;BME280;12348;42.710;23.378;2024-01-15T08:59:14;94335.03;;;4.55;68.27
20077;BME280;12348;42.710;23.378;2024-01-15T09:01:41;94318.06;;;4.31;70.91
20077;BME280;12348;42.710;23.378;2024-01-15T09:04:08;94299.47;;;3.70;73.72
20077;BME280;12348;42.710;23.378;2024-01-15T09:06:34;94285.63;;;3.27;76.89
20077;BME280;12348;42.710;23.378;2024-01-15T09:09:01;94292.56;;;3.58;76.96
20077;BME280;12348;42.710;23.378;2024-01-15T09:11:31;94311.19;;;3.69;74.68
20077;BME280;12348;42.710;23.378;2024-01-15T09:13:57;94300.47;;;3.02;79.89
20077;BME280;12348;42.710;23.378;2024-01-15T09:16:26;94283.16;;;2.84;81.88
20077;BME280;12348;42.710;23.378;2024-01-15T09:18:53;94268.09;;;3.56;78.70
20077;BME280;12348;42.710;23.378;2024-01-15T09:21:22;94249.50;;;4.47;77.14
20077;BME280;12348;42.710;23.378;2024-01-15T09:23:49;94250.66;;;5.98;67.88
20077;BME280;12348;42.710;23.378;2024-01-15T09:26:16;94242.19;;;7.24;63.72
20077;BME280;12348;42.710;23.378;2024-01-15T09:28:43;94244.00;;;8.68;56.97
20077;BME280;12348;42.710;23.378;2024-01-15T09:31:10;94242.34;;;9.22;53.07
20077;BME280;12348;42.710;23.378;2024-01-15T09:33:38;94233.06;;;8.79;51.63
20077;BME280;12348;42.710;23.378;2024-01-15T09:36:05;94254.13;;;7.32;54.27
20077;BME280;12348;42.710;23.378;2024-01-15T09:38:32;94232.69;;;6.51;57.17
20077;BME280;12348;42.710;23.378;2024-01-15T09:41:00;94220.63;;;5.77;60.79
20077;BME280;12348;42.710;23.378;2024-01-15T09:43:27;94204.38;;;6.02;61.76
20077;BME280;12348;42.710;23.378;2024-01-15T09:45:54;94211.66;;;6.88;59.73
20077;BME280;12348;42.710;23.378;2024-01-15T09:48:21;94210.00;;;8.22;56.01
20077;BME280;12348;42.710;23.378;2024-01-15T09:50:50;94202.22;;;8.76;52.47
20077;BME280;12348;42.710;23.378;2024-01-15T09:53:18;94196.22;;;9.29;50.44
20077;BME280;12348;42.710;23.378;2024-01-15T09:55:46;94185.91;;;8.86;49.64
20077;BME280;12348;42.710;23.378;2024-01-15T09:58:16;94183.34;;;7.85;51.45
20077;BME280;12348;42.710;23.378;2024-01-15T10:00:44;94175.25;;;6.68;54.11
20077;BME280;12348;42.710;23.378;2024-01-15T10:03:11;94163.63;;;6.59;55.45
20077;BME280;12348;42.710;23.378;2024-01-15T10:05:38;94174.13;;;6.07;57.98
20077;BME280;12348;42.710;23.378;2024-01-15T10:08:06;94182.28;;;5.68;62.10
20077;BME280;12348;42.710;23.378;2024-01-15T10:10:36;94187.94;;;4.93;69.96
20077;BME280;12348;42.710;23.378;2024-01-15T10:13:04;94175.03;;;4.66;73.26
20077;BME280;12348;42.710;23.378;2024-01-15T10:15:34;94167.84;;;4.66;72.49
20077;BME280;12348;42.710;23.378;2024-01-15T10:18:02;94149.47;;;4.15;74.68
20077;BME280;12348;42.710;23.378;2024-01-15T10:20:29;94136.81;;;3.76;77.17
20077;BME280;12348;42.710;23.378;2024-01-15T10:22:58;94150.50;;;3.34;79.80
20077;BME280;12348;42.710;23.378;2024-01-15T10:25:26;94148.66;;;3.09;80.79
20077;BME280;12348;42.710;23.378;2024-01-15T10:28:00;94133.22;;;3.06;81.64
20077;BME280;12348;42.710;23.378;2024-01-15T10:30:27;94140.94;;;2.82;83.56
20077;BME280;12348;42.710;23.378;2024-01-15T10:32:58;94131.66;;;2.69;85.54
20077;BME280;12348;42.710;23.378;2024-01-15T10:35:27;94139.88;;;2.67;88.83
20077;BME280;12348;42.710;23.378;2024-01-15T10:37:54;94130.31;;;2.82;88.46
20077;BME280;12348;42.710;23.378;2024-01-15T10:40:21;94132.97;;;2.87;89.92
20077;BME280;12348;42.710;23.378;2024-01-15T10:42:49;94122.31;;;2.87;90.44
20077;BME280;12348;42.710;23.378;2024-01-15T10:45:16;94117.00;;;2.97;90.68
20077;BME280;12348;42.710;23.378;2024-01-15T10:47:44;94113.81;;;3.10;89.31
20077;BME280;12348;42.710;23.378;2024-01-15T10:50:11;94099.97;;;3.29;88.51
20077;BME280;12348;42.710;23.378;2024-01-15T10:52:40;94109.00;;;3.23;88.74
20077;BME280;12348;42.710;23.378;2024-01-15T10:55:08;94099.38;;;3.42;88.05
20077;BME280;12348;42.710;23.378;2024-01-15T10:57:36;94100.94;;;3.58;86.02
20077;BME280;12348;42.710;23.378;2024-01-15T11:00:06;94088.53;;;4.03;81.50
20077;BME280;12348;42.710;23.378;2024-01-15T11:02:35;94078.53;;;4.24;78.97
20077;BME280;12348;42.710;23.378;2024-01-15T11:05:02;94078.25;;;4.31;77.06
20077;BME280;12348;42.710;23.378;2024-01-15T11:07:30;94084.03;;;4.43;76.67
20077;BME280;12348;42.710;23.378;2024-01-15T11:09:57;94078.25;;;4.31;77.18
20077;BME280;12348;42.710;23.378;2024-01-15T11:12:24;94082.63;;;4.51;76.06
20077;BME280;12348;42.710;23.378;2024-01-15T11:14:51;94071.28;;;5.32;73.06
20077;BME280;12348;42.710;23.378;2024-01-15T11:17:21;94065.31;;;5.17;70.53
20077;BME280;12348;42.710;23.378;2024-01-15T11:19:49;94054.13;;;4.85;73.33
20077;BME280;12348;42.710;23.378;2024-01-15T11:22:48;94061.72;;;5.26;73.10
20077;BME280;12348;42.710;23.378;2024-01-15T11:25:17;94060.56;;;5.62;69.71
20077;BME280;12348;42.710;23.378;2024-01-15T11:27:46;94043.50;;;5.81;68.27
20077;BME280;12348;42.710;23.378;2024-01-15T11:30:17;94056.66;;;6.21;66.42
20077;BME280;12348;42.710;23.378;2024-01-15T11:32:47;94062.44;;;6.47;64.04
20077;BME280;12348;42.710;23.378;2024-01-15T11:35:14;94052.59;;;6.42;63.32
20077;BME280;12348;42.710;23.378;2024-01-15T11:37:57;94026.78;;;6.51;63.25
20077;BME280;12348;42.710;23.378;2024-01-15T11:40:36;94036.31;;;6.76;61.93
20077;BME280;12348;42.710;23.378;2024-01-15T11:43:04;94041.97;;;6.89;61.62
20077;BME280;12348;42.710;23.378;2024-01-15T11:45:31;94044.72;;;7.02;60.89
20077;BME280;12348;42.710;23.378;2024-01-15T11:48:21;94034.00;;;7.16;59.11
20077;BME280;12348;42.710;23.378;2024-01-15T11:50:50;94033.28;;;6.97;59.54
20077;BME280;12348;42.710;23.378;2024-01-15T11:53:21;94029.97;;;6.86;58.96
20077;BME280;12348;42.710;23.378;2024-01-15T11:55:57;94037.13;;;5.77;63.68
20077;BME280;12348;42.710;23.378;2024-01-15T11:58:24;94026.19;;;5.79;64.57
20077;BME280;12348;42.710;23.378;2024-01-15T12:00:51;94016.56;;;5.78;65.35
20077;BME280;12348;42.710;23.378;2024-01-15T12:03:21;94016.78;;;6.05;64.10
20077;BME280;12348;42.710;23.378;2024-01-15T12:05:49;94013.38;;;6.00;63.94
20077;BME280;12348;42.710;23.378;2024-01-15T12:08:21;94015.31;;;5.94;63.43
20077;BME280;12348;42.710;23.378;2024-01-15T12:10:47;94013.59;;;5.61;64.91
20077;BME280;12348;42.710;23.378;2024-01-15T12:13:15;94013.41;;;5.28;67.84
20077;BME280;12348;42.710;23.378;2024-01-15T12:15:44;94009.38;;;5.06;68.30
20077;BME280;12348;42.710;23.378;2024-01-15T12:18:12;94009.75;;;4.95;69.79
20077;BME280;12348;42.710;23.378;2024-01-15T12:20:42;94003.72;;;4.84;70.71
20077;BME280;12348;42.710;23.378;2024-01-15T12:23:09;94000.09;;;4.75;75.83
20077;BME280;12348;42.710;23.378;2024-01-15T12:25:36;93992.25;;;4.54;74.77
20077;BME280;12348;42.710;23.378;2024-01-15T12:28:03;93991.66;;;4.28;75.09
20077;BME280;12348;42.710;23.378;2024-01-15T12:30:30;93990.31;;;4.31;77.40
20077;BME280;12348;42.710;23.378;2024-01-15T12:32:57;93987.22;;;4.19;76.54
20077;BME280;12348;42.710;23.378;2024-01-15T12:35:24;93984.69;;;4.32;77.04
20077;BME280;12348;42.710;23.378;2024-01-15T12:37:54;93980.63;;;4.40;80.24
20077;BME280;12348;42.710;23.378;2024-01-15T12:40:22;93975.75;;;4.52;77.45
20077;BME280;12348;42.710;23.378;2024-01-15T12:42:49;93972.41;;;4.71;75.95
20077;BME280;12348;42.710;23.378;2024-01-15T12:45:16;93959.38;;;4.93;74.14
20077;BME280;12348;42.710;23.378;2024-01-15T12:47:44;93965.72;;;4.97;73.08
20077;BME280;12348;42.710;23.378;2024-01-15T12:50:11;93964.41;;;4.71;73.93
20077;BME280;12348;42.710;23.378;2024-01-15T12:52:40;93971.06;;;4.39;76.48
20077;BME280;12348;42.710;23.378;2024-01-15T12:55:09;93960.16;;;4.01;78.83